createdAt,value
2023-02-24T00:00:33.908Z,18.77
2023-02-24T00:03:06.282Z,21.00
2023-02-24T00:05:37.135Z,19.23
2023-02-24T00:08:05.527Z,20.10
2023-02-24T00:10:37.702Z,21.20
2023-02-24T00:13:08.395Z,18.60
2023-02-24T00:15:36.855Z,19.37
2023-02-24T00:18:07.153Z,18.57
2023-02-24T00:20:35.787Z,19.63
2023-02-24T00:23:03.995Z,17.87
2023-02-24T00:25:32.290Z,19.07
2023-02-24T00:28:01.770Z,17.30
2023-02-24T00:30:32.800Z,18.43
2023-02-24T00:33:02.869Z,17.07
2023-02-24T00:35:33.115Z,17.60
2023-02-24T00:38:01.358Z,17.23
2023-02-24T00:40:30.844Z,15.83
2023-02-24T00:42:59.181Z,16.00
2023-02-24T00:45:31.050Z,15.87
2023-02-24T00:47:59.426Z,16.10
2023-02-24T00:50:27.684Z,15.77
2023-02-24T00:52:57.401Z,17.70
2023-02-24T00:55:27.798Z,15.57
2023-02-24T00:57:56.749Z,15.63
2023-02-24T01:00:25.523Z,17.20
2023-02-24T01:02:53.858Z,16.73
2023-02-24T01:05:22.132Z,14.33
2023-02-24T01:07:52.091Z,15.77
2023-02-24T01:10:23.586Z,14.97
2023-02-24T01:12:53.983Z,15.83
2023-02-24T01:15:23.273Z,14.97
2023-02-24T01:17:51.841Z,16.90
2023-02-24T01:20:20.448Z,16.17
2023-02-24T01:22:51.051Z,16.70
2023-02-24T01:25:21.258Z,14.97
2023-02-24T01:27:50.756Z,15.90
2023-02-24T01:30:19.088Z,16.60
2023-02-24T01:32:48.552Z,16.90
2023-02-24T01:35:17.776Z,15.37
2023-02-24T01:37:49.250Z,16.93
2023-02-24T01:40:20.933Z,16.80
2023-02-24T01:42:51.884Z,17.43
2023-02-24T01:45:26.023Z,16.47
2023-02-24T01:47:57.399Z,17.77
2023-02-24T01:50:26.465Z,14.97
2023-02-24T01:52:59.030Z,15.23
2023-02-24T01:55:32.256Z,16.90
2023-02-24T01:58:07.684Z,14.30
2023-02-24T02:00:45.185Z,15.27
2023-02-24T02:03:20.562Z,13.87
2023-02-24T02:05:51.726Z,16.40
2023-02-24T02:08:23.778Z,13.07
2023-02-24T02:10:58.647Z,14.10
2023-02-24T02:13:29.921Z,13.90
2023-02-24T02:16:13.668Z,12.90
2023-02-24T02:18:51.178Z,12.43
2023-02-24T02:21:45.308Z,13.97
2023-02-24T02:24:38.033Z,13.17
2023-02-24T02:27:29.439Z,14.87
2023-02-24T02:30:48.611Z,12.67
2023-02-24T02:33:57.315Z,11.33
2023-02-24T02:36:33.668Z,11.60
2023-02-24T02:39:08.085Z,11.83
2023-02-24T02:41:47.809Z,10.40
2023-02-24T02:44:22.238Z,10.53
2023-02-24T02:46:57.057Z,10.80
2023-02-24T02:49:32.839Z,10.40
2023-02-24T02:52:07.464Z,11.07
2023-02-24T02:54:45.625Z,12.10
2023-02-24T02:57:17.970Z,9.33
2023-02-24T02:59:52.757Z,9.43
2023-02-24T03:02:28.040Z,9.43
2023-02-24T03:05:01.980Z,8.30
2023-02-24T03:07:40.245Z,8.77
2023-02-24T03:10:17.890Z,9.47
2023-02-24T03:12:48.792Z,9.57
2023-02-24T03:15:18.204Z,9.83
2023-02-24T03:17:48.648Z,10.13
2023-02-24T03:20:24.267Z,9.37
2023-02-24T03:22:57.483Z,10.67
2023-02-24T03:25:30.003Z,9.80
2023-02-24T03:28:05.740Z,10.07
2023-02-24T03:30:41.677Z,11.33
2023-02-24T03:33:17.997Z,9.40
2023-02-24T03:35:51.205Z,9.43
2023-02-24T03:38:23.269Z,9.57
2023-02-24T03:40:53.530Z,9.87
2023-02-24T03:43:26.275Z,11.10
2023-02-24T03:45:55.621Z,12.03
2023-02-24T03:48:25.855Z,10.67
2023-02-24T03:50:59.538Z,10.80
2023-02-24T03:53:37.953Z,12.30
2023-02-24T03:56:23.829Z,10.00
2023-02-24T03:59:07.459Z,11.53
2023-02-24T04:01:42.972Z,13.17
2023-02-24T04:04:20.287Z,12.07
2023-02-24T04:06:56.400Z,15.17
2023-02-24T04:09:33.193Z,14.03
2023-02-24T04:12:09.928Z,11.17
2023-02-24T04:14:48.465Z,12.33
2023-02-24T04:17:21.040Z,14.53
2023-02-24T04:19:52.731Z,11.27
2023-02-24T04:22:25.086Z,13.03
2023-02-24T04:24:58.116Z,12.90
2023-02-24T04:27:29.336Z,13.80
2023-02-24T04:30:02.388Z,11.97
2023-02-24T04:32:32.592Z,11.57
2023-02-24T04:35:04.754Z,9.97
2023-02-24T04:37:39.924Z,11.63
2023-02-24T04:40:12.236Z,10.57
2023-02-24T04:42:46.719Z,9.67
2023-02-24T04:45:16.805Z,10.80
2023-02-24T04:47:49.544Z,12.00
2023-02-24T04:50:24.098Z,10.60
2023-02-24T04:52:56.314Z,10.03
2023-02-24T04:55:29.593Z,9.63
2023-02-24T04:57:58.876Z,10.23
2023-02-24T05:00:33.743Z,11.03
2023-02-24T05:03:05.130Z,10.97
2023-02-24T05:05:34.600Z,10.40
2023-02-24T05:08:07.829Z,9.93
2023-02-24T05:10:39.542Z,11.10
2023-02-24T05:13:09.933Z,10.47
2023-02-24T05:15:41.811Z,11.37
2023-02-24T05:18:14.351Z,11.53
2023-02-24T05:21:02.244Z,10.67
2023-02-24T05:23:34.408Z,9.93
2023-02-24T05:26:08.576Z,10.67
2023-02-24T05:28:40.825Z,12.30
2023-02-24T05:31:11.860Z,10.23
2023-02-24T05:33:40.670Z,11.40
2023-02-24T05:36:10.665Z,10.07
2023-02-24T05:38:40.959Z,11.93
2023-02-24T05:41:16.991Z,10.80
2023-02-24T05:43:48.135Z,11.73
2023-02-24T05:46:17.452Z,9.73
2023-02-24T05:48:47.109Z,11.57
2023-02-24T05:51:15.420Z,12.73
2023-02-24T05:53:44.977Z,13.93
2023-02-24T05:56:14.049Z,13.30
2023-02-24T05:58:45.128Z,13.87
2023-02-24T06:01:16.501Z,14.70
2023-02-24T06:03:48.016Z,15.57
2023-02-24T06:06:17.530Z,14.37
2023-02-24T06:08:50.530Z,14.07
2023-02-24T06:11:21.607Z,15.53
2023-02-24T06:13:57.578Z,13.47
2023-02-24T06:16:28.459Z,14.60
2023-02-24T06:18:57.976Z,13.47
2023-02-24T06:21:29.375Z,14.37
2023-02-24T06:24:00.840Z,12.73
2023-02-24T06:26:33.645Z,14.10
2023-02-24T06:29:02.288Z,18.37
2023-02-24T06:31:30.953Z,17.97
2023-02-24T06:33:59.133Z,18.83
2023-02-24T06:36:27.561Z,19.97
2023-02-24T06:38:56.335Z,23.37
2023-02-24T06:41:29.567Z,24.20
2023-02-24T06:43:58.784Z,24.23
2023-02-24T06:46:27.336Z,21.07
2023-02-24T06:48:56.409Z,23.80
2023-02-24T06:51:26.938Z,22.40
2023-02-24T06:53:55.911Z,25.97
2023-02-24T06:56:26.117Z,21.50
2023-02-24T06:58:56.908Z,24.27
2023-02-24T07:01:29.551Z,20.33
2023-02-24T07:04:20.341Z,24.87
2023-02-24T07:06:52.449Z,25.00
2023-02-24T07:09:22.589Z,23.17
2023-02-24T07:11:56.160Z,21.27
2023-02-24T07:14:25.905Z,20.77
2023-02-24T07:16:55.399Z,18.07
2023-02-24T07:19:27.159Z,18.53
2023-02-24T07:22:00.060Z,15.00
2023-02-24T07:24:35.880Z,17.00
2023-02-24T07:27:08.036Z,21.30
2023-02-24T07:29:37.905Z,17.10
2023-02-24T07:32:09.817Z,17.73
2023-02-24T07:34:40.258Z,17.20
2023-02-24T07:37:09.835Z,17.10
2023-02-24T07:39:39.650Z,17.07
2023-02-24T07:42:12.427Z,16.33
2023-02-24T07:44:41.048Z,19.00
2023-02-24T07:47:10.149Z,15.73
2023-02-24T07:49:41.222Z,16.07
2023-02-24T07:52:11.709Z,19.73
2023-02-24T07:54:40.353Z,16.63
2023-02-24T07:57:14.290Z,17.83
2023-02-24T07:59:47.618Z,17.00
2023-02-24T08:02:18.353Z,17.23
2023-02-24T08:04:51.687Z,18.57
2023-02-24T08:07:24.721Z,17.73
2023-02-24T08:10:24.197Z,17.03
2023-02-24T08:13:03.038Z,18.77
2023-02-24T08:15:34.400Z,21.27
2023-02-24T08:18:03.109Z,19.60
2023-02-24T08:20:51.377Z,20.67
2023-02-24T08:23:19.749Z,20.37
2023-02-24T08:25:48.127Z,18.97
2023-02-24T08:28:17.752Z,18.70
2023-02-24T08:30:47.125Z,18.07
2023-02-24T08:33:20.314Z,17.67
2023-02-24T08:35:53.235Z,19.77
2023-02-24T08:38:26.288Z,20.93
2023-02-24T08:40:57.476Z,19.33
2023-02-24T08:43:33.936Z,20.00
2023-02-24T08:46:12.833Z,19.70
2023-02-24T08:48:43.456Z,16.30
2023-02-24T08:51:18.036Z,19.07
2023-02-24T08:53:47.615Z,16.60
2023-02-24T08:56:24.622Z,13.97
2023-02-24T08:58:58.178Z,15.93
2023-02-24T09:01:35.123Z,14.47
2023-02-24T09:04:06.825Z,14.87
2023-02-24T09:06:44.064Z,13.63
2023-02-24T09:09:21.160Z,11.03
2023-02-24T09:11:56.558Z,7.87
2023-02-24T09:14:29.308Z,10.40
2023-02-24T09:17:07.099Z,8.30
2023-02-24T09:20:01.983Z,7.27
2023-02-24T09:22:33.503Z,7.33
2023-02-24T09:25:26.054Z,8.93
2023-02-24T09:27:57.312Z,10.40
2023-02-24T09:30:39.263Z,8.17
2023-02-24T09:33:20.801Z,8.43
2023-02-24T09:36:09.742Z,7.20
2023-02-24T09:39:09.767Z,7.77
2023-02-24T09:41:57.351Z,7.67
2023-02-24T09:44:33.480Z,8.53
2023-02-24T09:47:13.378Z,8.27
2023-02-24T09:49:51.031Z,8.27
2023-02-24T09:52:20.785Z,9.80
2023-02-24T09:55:15.726Z,14.10
2023-02-24T09:58:12.941Z,12.37
2023-02-24T10:00:46.739Z,11.10
2023-02-24T10:03:42.447Z,11.60
2023-02-24T10:06:20.836Z,12.30
2023-02-24T10:08:55.182Z,9.80
2023-02-24T10:11:33.978Z,11.70
2023-02-24T10:14:06.337Z,15.73
2023-02-24T10:16:44.497Z,10.10
2023-02-24T10:19:25.364Z,10.73
2023-02-24T10:22:02.852Z,9.73
2023-02-24T10:24:38.023Z,10.00
2023-02-24T10:27:16.681Z,9.23
2023-02-24T10:30:04.723Z,7.63
2023-02-24T10:32:41.908Z,8.67
2023-02-24T10:35:17.513Z,6.87
2023-02-24T10:37:46.237Z,6.37
2023-02-24T10:40:24.931Z,6.33
2023-02-24T10:43:10.838Z,7.50
2023-02-24T10:45:45.135Z,7.90
2023-02-24T10:48:40.310Z,7.20
2023-02-24T10:51:20.014Z,5.97
2023-02-24T10:54:09.914Z,5.10
2023-02-24T10:56:44.385Z,6.30
2023-02-24T10:59:41.882Z,5.70
2023-02-24T11:02:24.815Z,4.43
2023-02-24T11:05:16.797Z,4.60
2023-02-24T11:07:53.806Z,5.77
2023-02-24T11:10:33.073Z,4.57
2023-02-24T11:13:33.406Z,4.83
2023-02-24T11:16:19.910Z,5.23
2023-02-24T11:18:50.119Z,5.57
2023-02-24T11:21:18.993Z,5.37
2023-02-24T11:23:52.132Z,5.67
2023-02-24T11:26:24.036Z,6.30
2023-02-24T11:29:03.901Z,5.00
2023-02-24T11:31:46.045Z,6.33
2023-02-24T11:34:24.632Z,5.43
2023-02-24T11:37:02.920Z,5.77
2023-02-24T11:39:54.101Z,5.30
2023-02-24T11:42:27.074Z,5.93
2023-02-24T11:45:02.566Z,6.03
2023-02-24T11:47:39.964Z,11.23
2023-02-24T11:50:29.074Z,6.00
2023-02-24T11:53:01.290Z,5.03
2023-02-24T11:55:36.173Z,6.57
2023-02-24T11:58:13.695Z,5.50
2023-02-24T12:00:52.779Z,7.37
2023-02-24T12:03:29.764Z,5.37
2023-02-24T12:06:09.779Z,6.10
2023-02-24T12:08:42.725Z,12.10
2023-02-24T12:11:19.117Z,34.30
2023-02-24T12:13:53.631Z,42.37
2023-02-24T12:16:26.738Z,32.10
2023-02-24T12:19:01.776Z,17.73
2023-02-24T12:21:35.643Z,9.97
2023-02-24T12:24:08.567Z,7.40
2023-02-24T12:26:48.552Z,15.60
2023-02-24T12:29:34.530Z,22.93
2023-02-24T12:32:12.111Z,14.03
2023-02-24T12:34:51.583Z,20.83
2023-02-24T12:37:30.236Z,14.13
2023-02-24T12:40:13.897Z,7.37
2023-02-24T12:42:49.555Z,7.40
2023-02-24T12:45:22.911Z,5.60
2023-02-24T12:48:05.763Z,5.53
2023-02-24T12:50:46.504Z,5.37
2023-02-24T12:53:23.403Z,6.17
2023-02-24T12:56:02.731Z,6.47
2023-02-24T12:58:36.088Z,6.67
2023-02-24T13:01:13.397Z,8.10
2023-02-24T13:04:05.922Z,6.83
2023-02-24T13:06:49.961Z,7.10
2023-02-24T13:09:25.771Z,6.67
2023-02-24T13:12:03.862Z,7.67
2023-02-24T13:14:38.075Z,7.27
2023-02-24T13:17:22.691Z,6.20
2023-02-24T13:19:53.594Z,6.10
2023-02-24T13:22:31.190Z,5.77
2023-02-24T13:25:18.699Z,8.97
2023-02-24T13:27:57.288Z,6.37
2023-02-24T13:30:35.332Z,6.90
2023-02-24T13:33:08.764Z,5.20
2023-02-24T13:35:38.022Z,6.90
2023-02-24T13:38:22.628Z,6.17
2023-02-24T13:40:51.222Z,6.33
2023-02-24T13:43:30.885Z,6.70
2023-02-24T13:46:03.376Z,6.83
2023-02-24T13:48:51.873Z,9.07
2023-02-24T13:51:59.477Z,7.30
2023-02-24T13:54:54.761Z,7.70
2023-02-24T13:57:55.781Z,6.13
2023-02-24T14:00:32.581Z,7.07
2023-02-24T14:03:10.304Z,6.47
2023-02-24T14:05:42.254Z,6.03
2023-02-24T14:08:21.007Z,6.77
2023-02-24T14:10:54.178Z,6.43
2023-02-24T14:13:27.757Z,5.80
2023-02-24T14:15:57.797Z,6.93
2023-02-24T14:18:29.460Z,7.10
2023-02-24T14:20:58.855Z,6.40
2023-02-24T14:23:29.270Z,9.47
2023-02-24T14:26:00.876Z,6.97
2023-02-24T14:28:31.970Z,6.23
2023-02-24T14:31:03.298Z,6.97
2023-02-24T14:33:36.132Z,6.27
2023-02-24T14:36:06.363Z,8.17
2023-02-24T14:38:37.740Z,6.57
2023-02-24T14:41:07.587Z,8.00
2023-02-24T14:43:42.203Z,6.17
2023-02-24T14:46:10.821Z,8.07
2023-02-24T14:48:40.390Z,7.97
2023-02-24T14:51:13.048Z,8.00
2023-02-24T14:53:52.567Z,8.67
2023-02-24T14:56:25.272Z,7.27
2023-02-24T14:59:00.410Z,7.97
2023-02-24T15:01:33.424Z,7.80
2023-02-24T15:04:13.246Z,5.53
2023-02-24T15:06:43.832Z,5.60
2023-02-24T15:09:16.199Z,6.60
2023-02-24T15:11:44.870Z,6.60
2023-02-24T15:14:24.264Z,6.10
2023-02-24T15:16:56.382Z,6.87
2023-02-24T15:19:32.220Z,6.57
2023-02-24T15:22:01.080Z,5.80
2023-02-24T15:24:31.295Z,4.47
2023-02-24T15:27:02.083Z,6.13
2023-02-24T15:29:32.547Z,4.90
2023-02-24T15:32:06.929Z,7.10
2023-02-24T15:34:38.302Z,6.40
2023-02-24T15:37:15.585Z,6.30
2023-02-24T15:39:45.475Z,6.27
2023-02-24T15:42:28.194Z,5.83
2023-02-24T15:44:58.088Z,6.70
2023-02-24T15:47:29.634Z,5.30
2023-02-24T15:50:00.097Z,6.60
2023-02-24T15:52:30.400Z,6.00
2023-02-24T15:55:02.629Z,5.80
2023-02-24T15:57:32.920Z,6.20
2023-02-24T16:00:01.761Z,8.53
2023-02-24T16:02:30.550Z,16.53
2023-02-24T16:05:00.500Z,12.43
2023-02-24T16:07:32.378Z,9.60
2023-02-24T16:10:02.222Z,8.93
2023-02-24T16:12:33.562Z,6.83
2023-02-24T16:15:03.707Z,10.33
2023-02-24T16:17:34.682Z,8.27
2023-02-24T16:20:09.068Z,7.43
2023-02-24T16:22:37.642Z,8.20
2023-02-24T16:25:07.001Z,6.37
2023-02-24T16:27:35.437Z,6.87
2023-02-24T16:30:04.367Z,8.80
2023-02-24T16:32:32.798Z,6.80
2023-02-24T16:35:03.121Z,8.63
2023-02-24T16:37:32.758Z,8.37
2023-02-24T16:40:01.245Z,8.90
2023-02-24T16:42:29.609Z,7.10
2023-02-24T16:44:57.883Z,6.80
2023-02-24T16:47:26.773Z,7.23
2023-02-24T16:49:58.090Z,8.87
2023-02-24T16:52:29.118Z,7.97
2023-02-24T16:54:59.304Z,6.83
2023-02-24T16:57:29.343Z,5.97
2023-02-24T16:59:58.470Z,6.70
2023-02-24T17:02:27.708Z,6.43
2023-02-24T17:04:56.241Z,6.63
2023-02-24T17:07:25.767Z,7.50
2023-02-24T17:09:54.035Z,7.20
2023-02-24T17:12:24.210Z,5.67
2023-02-24T17:14:52.867Z,5.73
2023-02-24T17:17:21.708Z,5.80
2023-02-24T17:19:50.127Z,5.57
2023-02-24T17:22:19.015Z,8.57
2023-02-24T17:24:47.477Z,5.33
2023-02-24T17:27:16.480Z,4.80
2023-02-24T17:29:46.277Z,4.40
2023-02-24T17:32:16.300Z,4.80
2023-02-24T17:34:45.655Z,5.97
2023-02-24T17:37:14.234Z,5.17
2023-02-24T17:39:42.893Z,5.70
2023-02-24T17:42:11.656Z,4.43
2023-02-24T17:44:40.452Z,5.70
2023-02-24T17:47:12.683Z,5.20
2023-02-24T17:49:41.804Z,4.97
2023-02-24T17:52:10.922Z,5.03
2023-02-24T17:54:42.502Z,5.90
2023-02-24T17:57:11.476Z,4.43
2023-02-24T17:59:43.529Z,5.73
2023-02-24T18:02:16.388Z,6.00
2023-02-24T18:04:45.705Z,5.03
2023-02-24T18:07:14.421Z,5.23
2023-02-24T18:09:42.824Z,4.33
2023-02-24T18:12:11.236Z,5.10
2023-02-24T18:14:39.814Z,6.47
2023-02-24T18:17:09.074Z,4.73
2023-02-24T18:19:38.764Z,4.97
2023-02-24T18:22:07.551Z,4.90
2023-02-24T18:24:35.785Z,4.90
2023-02-24T18:27:04.441Z,4.17
2023-02-24T18:29:32.816Z,5.83
2023-02-24T18:32:03.261Z,5.80
2023-02-24T18:34:32.412Z,5.30
2023-02-24T18:37:02.116Z,5.07
2023-02-24T18:39:30.720Z,5.03
2023-02-24T18:41:59.672Z,5.10
2023-02-24T18:44:28.171Z,4.73
2023-02-24T18:46:56.422Z,4.57
2023-02-24T18:49:24.979Z,3.60
2023-02-24T18:51:53.370Z,4.83
2023-02-24T18:54:23.184Z,9.13
2023-02-24T18:56:51.573Z,4.07
2023-02-24T18:59:19.953Z,3.70
2023-02-24T19:01:48.812Z,3.57
2023-02-24T19:04:17.673Z,3.23
2023-02-24T19:06:49.011Z,3.57
2023-02-24T19:09:21.466Z,3.17
2023-02-24T19:11:52.370Z,3.20
2023-02-24T19:14:21.168Z,3.40
2023-02-24T19:16:49.679Z,2.43
2023-02-24T19:19:18.268Z,3.10
2023-02-24T19:21:48.321Z,2.90
2023-02-24T19:24:18.617Z,2.87
2023-02-24T19:26:47.574Z,3.40
2023-02-24T19:29:18.522Z,3.13
2023-02-24T19:31:52.550Z,3.30
2023-02-24T19:34:21.631Z,3.40
2023-02-24T19:36:49.949Z,3.60
2023-02-24T19:39:19.178Z,3.93
2023-02-24T19:41:49.877Z,3.33
2023-02-24T19:44:20.581Z,3.23
2023-02-24T19:46:49.214Z,3.23
2023-02-24T19:49:18.335Z,3.70
2023-02-24T19:51:48.305Z,2.87
2023-02-24T19:54:36.374Z,3.00
2023-02-24T19:57:05.457Z,3.77
2023-02-24T19:59:36.830Z,3.93
2023-02-24T20:02:05.342Z,3.43
2023-02-24T20:04:34.524Z,4.37
2023-02-24T20:07:03.119Z,4.20
2023-02-24T20:09:32.756Z,4.00
2023-02-24T20:12:02.333Z,4.30
2023-02-24T20:14:31.065Z,4.00
2023-02-24T20:17:01.262Z,3.47
2023-02-24T20:19:32.884Z,3.97
2023-02-24T20:22:02.612Z,3.70
2023-02-24T20:24:31.521Z,3.93
2023-02-24T20:27:04.690Z,3.70
2023-02-24T20:29:35.283Z,3.97
2023-02-24T20:32:07.014Z,4.30
2023-02-24T20:34:37.705Z,4.37
2023-02-24T20:37:08.082Z,5.47
2023-02-24T20:39:39.854Z,4.43
2023-02-24T20:42:09.249Z,4.57
2023-02-24T20:44:39.810Z,6.20
2023-02-24T20:47:11.883Z,5.37
2023-02-24T20:49:49.140Z,5.47
2023-02-24T20:52:17.925Z,5.07
2023-02-24T20:54:48.618Z,5.00
2023-02-24T20:57:18.356Z,5.17
2023-02-24T21:00:01.449Z,4.57
2023-02-24T21:02:34.491Z,6.20
2023-02-24T21:05:03.686Z,5.53
2023-02-24T21:07:36.098Z,5.30
2023-02-24T21:10:06.378Z,5.67
2023-02-24T21:12:35.485Z,4.77
2023-02-24T21:15:06.326Z,5.57
2023-02-24T21:17:36.785Z,4.80
2023-02-24T21:20:07.348Z,5.47
2023-02-24T21:22:36.054Z,4.83
2023-02-24T21:25:07.760Z,5.50
2023-02-24T21:27:38.720Z,4.87
2023-02-24T21:30:09.354Z,5.33
2023-02-24T21:32:39.844Z,4.60
2023-02-24T21:35:09.286Z,4.90
2023-02-24T21:37:40.063Z,6.13
2023-02-24T21:40:12.823Z,4.60
2023-02-24T21:42:44.026Z,5.00
2023-02-24T21:45:13.881Z,6.03
2023-02-24T21:47:46.415Z,4.80
2023-02-24T21:50:16.726Z,6.37
2023-02-24T21:52:47.112Z,4.17
2023-02-24T21:55:16.886Z,5.90
2023-02-24T21:57:45.799Z,4.80
2023-02-24T22:00:19.651Z,4.20
2023-02-24T22:02:54.605Z,4.67
2023-02-24T22:05:25.759Z,5.60
2023-02-24T22:07:54.770Z,6.30
2023-02-24T22:10:24.496Z,5.83
2023-02-24T22:12:57.185Z,6.80
2023-02-24T22:15:25.984Z,6.27
2023-02-24T22:17:56.128Z,6.47
2023-02-24T22:20:25.862Z,8.20
2023-02-24T22:22:56.257Z,5.67
2023-02-24T22:25:26.792Z,6.17
2023-02-24T22:27:57.485Z,6.20
2023-02-24T22:30:26.260Z,6.10
2023-02-24T22:32:56.498Z,6.93
2023-02-24T22:35:25.418Z,6.90
2023-02-24T22:37:54.483Z,6.80
2023-02-24T22:40:23.579Z,6.87
2023-02-24T22:42:52.248Z,8.77
2023-02-24T22:45:20.612Z,7.93
2023-02-24T22:47:49.353Z,7.57
2023-02-24T22:50:20.077Z,8.20
2023-02-24T22:52:49.981Z,7.73
2023-02-24T22:55:19.631Z,8.53
2023-02-24T22:57:48.747Z,6.97
2023-02-24T23:00:22.784Z,6.80
2023-02-24T23:02:53.724Z,9.80
2023-02-24T23:05:24.516Z,6.70
2023-02-24T23:07:52.846Z,6.53
2023-02-24T23:10:21.290Z,7.83
2023-02-24T23:12:49.783Z,7.53
2023-02-24T23:15:18.900Z,7.57
2023-02-24T23:17:49.039Z,8.70
2023-02-24T23:20:18.068Z,6.53
2023-02-24T23:22:51.408Z,7.43
2023-02-24T23:25:23.010Z,6.13
2023-02-24T23:27:52.124Z,8.03
2023-02-24T23:30:20.603Z,5.37
2023-02-24T23:32:49.560Z,6.87
2023-02-24T23:39:26.208Z,5.30
2023-02-24T23:42:02.789Z,5.30
2023-02-24T23:44:31.254Z,7.10
2023-02-24T23:47:01.201Z,5.03
2023-02-24T23:49:42.677Z,6.63
2023-02-24T23:52:16.493Z,6.00
2023-02-24T23:54:49.985Z,5.53
2023-02-24T23:57:18.946Z,5.17
2023-02-24T23:59:48.535Z,4.30
